createdAt,value
2018-12-29T00:02:18.747Z,19.50
2018-12-29T00:04:46.169Z,19.97
2018-12-29T00:07:13.707Z,19.73
2018-12-29T00:09:41.845Z,20.60
2018-12-29T00:12:10.432Z,22.10
2018-12-29T00:14:38.677Z,20.37
2018-12-29T00:17:06.301Z,20.80
2018-12-29T00:19:34.514Z,21.30
2018-12-29T00:22:01.692Z,21.50
2018-12-29T00:24:30.232Z,19.93
2018-12-29T00:26:57.887Z,22.50
2018-12-29T00:29:25.321Z,19.97
2018-12-29T00:31:53.539Z,22.23
2018-12-29T00:34:21.056Z,20.30
2018-12-29T00:36:48.535Z,23.23
2018-12-29T00:39:16.020Z,21.20
2018-12-29T00:41:44.920Z,25.13
2018-12-29T00:44:13.031Z,30.47
2018-12-29T00:46:40.653Z,21.77
2018-12-29T00:49:07.663Z,25.33
2018-12-29T00:51:34.824Z,26.30
2018-12-29T00:54:02.248Z,20.50
2018-12-29T00:56:29.757Z,20.60
2018-12-29T00:58:56.836Z,26.40
2018-12-29T01:01:24.255Z,21.53
2018-12-29T01:03:51.713Z,20.63
2018-12-29T01:06:20.780Z,19.90
2018-12-29T01:08:49.020Z,19.80
2018-12-29T01:11:16.567Z,20.23
2018-12-29T01:13:43.459Z,18.20
2018-12-29T01:16:10.964Z,18.93
2018-12-29T01:18:38.184Z,19.20
2018-12-29T01:21:05.820Z,21.80
2018-12-29T01:23:33.380Z,20.13
2018-12-29T01:26:00.874Z,19.97
2018-12-29T01:28:28.184Z,20.50
2018-12-29T01:30:56.246Z,21.50
2018-12-29T01:33:23.974Z,21.57
2018-12-29T01:35:51.748Z,21.30
2018-12-29T01:38:19.764Z,20.17
2018-12-29T01:40:47.943Z,20.00
2018-12-29T01:43:15.432Z,21.60
2018-12-29T01:45:42.608Z,20.27
2018-12-29T01:48:10.975Z,21.93
2018-12-29T01:50:39.446Z,21.57
2018-12-29T01:53:06.456Z,20.70
2018-12-29T01:55:34.050Z,19.47
2018-12-29T01:58:01.716Z,20.00
2018-12-29T02:00:29.052Z,19.70
2018-12-29T02:02:57.406Z,19.73
2018-12-29T02:05:24.275Z,18.27
2018-12-29T02:07:52.017Z,18.63
2018-12-29T02:10:19.792Z,18.27
2018-12-29T02:12:47.811Z,19.40
2018-12-29T02:15:15.566Z,18.73
2018-12-29T02:17:43.362Z,18.23
2018-12-29T02:20:11.255Z,17.17
2018-12-29T02:22:38.354Z,17.57
2018-12-29T02:25:06.263Z,17.90
2018-12-29T02:27:33.268Z,17.77
2018-12-29T02:30:01.442Z,17.47
2018-12-29T02:32:29.365Z,18.23
2018-12-29T02:34:57.724Z,19.37
2018-12-29T02:37:25.003Z,19.87
2018-12-29T02:39:52.577Z,18.10
2018-12-29T02:42:20.315Z,26.70
2018-12-29T02:44:47.604Z,23.70
2018-12-29T02:47:15.566Z,17.13
2018-12-29T02:49:43.503Z,17.73
2018-12-29T02:52:11.112Z,17.60
2018-12-29T02:54:37.997Z,17.83
2018-12-29T02:57:06.497Z,15.73
2018-12-29T02:59:34.398Z,18.20
2018-12-29T03:02:02.692Z,16.30
2018-12-29T03:04:31.891Z,15.33
2018-12-29T03:07:00.823Z,15.47
2018-12-29T03:09:29.209Z,15.10
2018-12-29T03:11:56.309Z,16.43
2018-12-29T03:14:25.404Z,17.80
2018-12-29T03:16:54.060Z,15.93
2018-12-29T03:19:22.839Z,15.93
2018-12-29T03:21:50.905Z,16.00
2018-12-29T03:24:17.941Z,17.00
2018-12-29T03:26:45.908Z,15.83
2018-12-29T03:29:14.284Z,17.73
2018-12-29T03:31:41.929Z,17.17
2018-12-29T03:34:09.497Z,16.20
2018-12-29T03:36:36.631Z,13.53
2018-12-29T03:39:05.534Z,16.10
2018-12-29T03:41:33.200Z,16.33
2018-12-29T03:44:00.222Z,15.03
2018-12-29T03:46:27.395Z,15.00
2018-12-29T03:48:54.386Z,13.00
2018-12-29T03:51:21.557Z,15.17
2018-12-29T03:53:48.837Z,15.43
2018-12-29T03:56:18.047Z,15.53
2018-12-29T03:58:45.309Z,14.80
2018-12-29T04:01:13.868Z,15.73
2018-12-29T04:03:40.970Z,14.80
2018-12-29T04:06:09.132Z,13.33
2018-12-29T04:08:36.683Z,14.33
2018-12-29T04:11:03.859Z,15.63
2018-12-29T04:13:31.163Z,15.50
2018-12-29T04:15:58.974Z,14.43
2018-12-29T04:18:26.790Z,13.47
2018-12-29T04:20:53.726Z,14.47
2018-12-29T04:23:22.573Z,14.10
2018-12-29T04:25:49.508Z,14.00
2018-12-29T04:28:16.660Z,15.00
2018-12-29T04:30:43.851Z,14.03
2018-12-29T04:33:10.888Z,13.50
2018-12-29T04:35:38.047Z,15.47
2018-12-29T04:38:05.083Z,15.30
2018-12-29T04:40:31.945Z,15.90
2018-12-29T04:42:59.092Z,14.57
2018-12-29T04:45:26.127Z,14.97
2018-12-29T04:47:53.155Z,15.10
2018-12-29T04:50:20.072Z,14.10
2018-12-29T04:52:47.309Z,13.47
2018-12-29T04:55:14.451Z,14.40
2018-12-29T04:57:41.460Z,16.13
2018-12-29T05:00:08.863Z,14.40
2018-12-29T05:02:36.020Z,13.00
2018-12-29T05:05:04.989Z,13.20
2018-12-29T05:07:32.424Z,13.43
2018-12-29T05:09:59.463Z,13.30
2018-12-29T05:12:26.767Z,14.03
2018-12-29T05:14:54.257Z,13.00
2018-12-29T05:17:22.016Z,13.20
2018-12-29T05:19:49.063Z,13.43
2018-12-29T05:22:16.237Z,14.17
2018-12-29T05:24:43.367Z,14.97
2018-12-29T05:27:10.943Z,13.67
2018-12-29T05:29:38.315Z,12.10
2018-12-29T05:32:05.369Z,13.23
2018-12-29T05:34:32.268Z,13.20
2018-12-29T05:36:59.301Z,13.50
2018-12-29T05:39:26.729Z,13.50
2018-12-29T05:41:53.887Z,14.10
2018-12-29T05:44:21.334Z,12.10
2018-12-29T05:46:48.260Z,12.50
2018-12-29T05:49:15.259Z,13.80
2018-12-29T05:51:43.194Z,11.80
2018-12-29T05:54:10.324Z,14.23
2018-12-29T05:56:37.746Z,14.40
2018-12-29T05:59:05.081Z,14.17
2018-12-29T06:01:32.079Z,12.10
2018-12-29T06:03:59.127Z,13.10
2018-12-29T06:06:26.308Z,12.87
2018-12-29T06:08:53.672Z,12.93
2018-12-29T06:11:20.568Z,13.17
2018-12-29T06:13:47.924Z,12.90
2018-12-29T06:16:15.877Z,14.10
2018-12-29T06:18:43.047Z,12.20
2018-12-29T06:21:10.147Z,13.57
2018-12-29T06:23:37.219Z,13.90
2018-12-29T06:26:04.827Z,12.70
2018-12-29T06:28:32.003Z,13.17
2018-12-29T06:30:59.231Z,12.40
2018-12-29T06:33:27.096Z,12.30
2018-12-29T06:35:54.115Z,13.03
2018-12-29T06:38:21.407Z,14.50
2018-12-29T06:40:48.401Z,12.60
2018-12-29T06:43:16.072Z,13.37
2018-12-29T06:45:42.987Z,12.33
2018-12-29T06:48:10.610Z,11.67
2018-12-29T06:50:38.068Z,12.63
2018-12-29T06:53:06.431Z,11.73
2018-12-29T06:55:33.461Z,12.57
2018-12-29T06:58:00.844Z,11.70
2018-12-29T07:00:27.764Z,11.57
2018-12-29T07:02:55.147Z,14.20
2018-12-29T07:05:22.562Z,13.20
2018-12-29T07:07:50.064Z,12.50
2018-12-29T07:10:17.105Z,11.87
2018-12-29T07:12:44.141Z,12.87
2018-12-29T07:15:11.212Z,12.10
2018-12-29T07:17:38.086Z,12.30
2018-12-29T07:20:05.257Z,11.90
2018-12-29T07:22:32.284Z,11.30
2018-12-29T07:24:59.515Z,11.87
2018-12-29T07:27:26.847Z,12.33
2018-12-29T07:29:54.624Z,11.13
2018-12-29T07:32:21.699Z,12.20
2018-12-29T07:34:48.627Z,13.87
2018-12-29T07:37:15.965Z,12.03
2018-12-29T07:39:43.631Z,12.40
2018-12-29T07:42:10.697Z,12.50
2018-12-29T07:44:37.699Z,12.60
2018-12-29T07:47:04.823Z,13.10
2018-12-29T07:49:31.842Z,12.30
2018-12-29T07:51:59.144Z,12.00
2018-12-29T07:54:26.216Z,12.13
2018-12-29T07:56:53.402Z,11.00
2018-12-29T07:59:20.603Z,11.70
2018-12-29T08:01:47.981Z,12.50
2018-12-29T08:04:16.143Z,12.60
2018-12-29T08:06:43.048Z,12.83
2018-12-29T08:09:10.451Z,13.67
2018-12-29T08:11:39.557Z,12.17
2018-12-29T08:14:08.120Z,13.50
2018-12-29T08:16:35.656Z,13.63
2018-12-29T08:19:03.109Z,12.20
2018-12-29T08:21:30.567Z,13.17
2018-12-29T08:23:58.079Z,13.80
2018-12-29T08:26:25.852Z,13.73
2018-12-29T08:28:55.224Z,12.57
2018-12-29T08:31:22.715Z,13.00
2018-12-29T08:33:50.037Z,13.37
2018-12-29T08:36:17.662Z,14.03
2018-12-29T08:38:45.662Z,14.47
2018-12-29T08:41:13.943Z,13.60
2018-12-29T08:43:41.255Z,14.30
2018-12-29T08:46:08.325Z,13.40
2018-12-29T08:48:36.438Z,14.20
2018-12-29T08:51:05.385Z,14.63
2018-12-29T08:53:32.927Z,14.00
2018-12-29T08:56:00.400Z,15.43
2018-12-29T08:58:28.531Z,13.80
2018-12-29T09:00:56.640Z,12.30
2018-12-29T09:03:36.024Z,14.83
2018-12-29T09:06:03.896Z,13.80
2018-12-29T09:08:32.264Z,13.50
2018-12-29T09:11:02.282Z,14.03
2018-12-29T09:13:31.146Z,15.20
2018-12-29T09:15:58.299Z,14.90
2018-12-29T09:18:25.923Z,13.80
2018-12-29T09:20:53.585Z,13.60
2018-12-29T09:23:20.979Z,12.77
2018-12-29T09:25:49.026Z,14.57
2018-12-29T09:28:16.439Z,13.60
2018-12-29T09:30:44.034Z,13.70
2018-12-29T09:33:11.403Z,13.97
2018-12-29T09:35:38.667Z,13.80
2018-12-29T09:38:07.026Z,13.63
2018-12-29T09:40:34.081Z,14.30
2018-12-29T09:43:01.901Z,13.60
2018-12-29T09:45:29.867Z,13.63
2018-12-29T09:47:57.823Z,14.07
2018-12-29T09:50:25.489Z,15.27
2018-12-29T09:52:52.737Z,13.17
2018-12-29T09:55:19.796Z,14.23
2018-12-29T09:57:47.301Z,13.13
2018-12-29T10:00:14.654Z,13.53
2018-12-29T10:02:42.770Z,14.00
2018-12-29T10:05:10.895Z,14.30
2018-12-29T10:07:38.266Z,14.20
2018-12-29T10:10:05.430Z,12.20
2018-12-29T10:12:32.433Z,14.00
2018-12-29T10:14:59.631Z,14.57
2018-12-29T10:17:28.798Z,15.20
2018-12-29T10:19:59.652Z,15.67
2018-12-29T10:22:27.434Z,13.83
2018-12-29T10:24:56.133Z,15.23
2018-12-29T10:27:24.299Z,15.40
2018-12-29T10:29:51.780Z,14.80
2018-12-29T10:32:19.443Z,15.10
2018-12-29T10:34:48.145Z,14.03
2018-12-29T10:37:15.312Z,14.50
2018-12-29T10:39:42.935Z,15.53
2018-12-29T10:42:10.187Z,15.10
2018-12-29T10:44:37.547Z,15.70
2018-12-29T10:47:05.195Z,14.50
2018-12-29T10:49:32.445Z,15.00
2018-12-29T10:52:00.071Z,14.97
2018-12-29T10:54:27.316Z,15.03
2018-12-29T10:56:54.475Z,14.90
2018-12-29T10:59:21.962Z,14.90
2018-12-29T11:01:49.139Z,15.57
2018-12-29T11:04:17.340Z,14.87
2018-12-29T11:06:44.611Z,15.37
2018-12-29T11:09:11.908Z,14.93
2018-12-29T11:11:39.480Z,16.50
2018-12-29T11:14:08.729Z,15.60
2018-12-29T11:16:39.027Z,16.27
2018-12-29T11:19:06.352Z,17.17
2018-12-29T11:21:33.672Z,17.00
2018-12-29T11:24:01.299Z,16.90
2018-12-29T11:26:29.108Z,16.87
2018-12-29T11:28:57.757Z,15.70
2018-12-29T11:31:25.564Z,14.50
2018-12-29T11:33:53.538Z,16.43
2018-12-29T11:36:21.017Z,15.63
2018-12-29T11:38:48.197Z,16.37
2018-12-29T11:41:17.572Z,15.10
2018-12-29T11:43:45.632Z,15.53
2018-12-29T11:46:12.756Z,15.30
2018-12-29T11:48:39.812Z,16.33
2018-12-29T11:51:07.819Z,15.83
2018-12-29T11:53:35.075Z,15.40
2018-12-29T11:56:02.846Z,17.03
2018-12-29T11:58:30.383Z,15.13
2018-12-29T12:00:57.588Z,15.53
2018-12-29T12:03:27.216Z,15.43
2018-12-29T12:05:57.924Z,14.83
2018-12-29T12:08:24.843Z,15.67
2018-12-29T12:10:52.255Z,16.00
2018-12-29T12:13:20.136Z,15.70
2018-12-29T12:15:48.283Z,15.83
2018-12-29T12:18:16.607Z,14.30
2018-12-29T12:20:44.136Z,16.17
2018-12-29T12:23:13.347Z,15.30
2018-12-29T12:25:41.034Z,13.80
2018-12-29T12:28:08.668Z,14.93
2018-12-29T12:30:37.243Z,15.50
2018-12-29T12:33:04.704Z,15.27
2018-12-29T12:35:31.710Z,15.37
2018-12-29T12:38:02.171Z,16.93
2018-12-29T12:40:30.100Z,16.83
2018-12-29T12:42:57.755Z,14.40
2018-12-29T12:45:25.676Z,15.30
2018-12-29T12:47:53.212Z,15.10
2018-12-29T12:50:20.223Z,15.20
2018-12-29T12:52:47.923Z,13.80
2018-12-29T12:55:15.870Z,14.33
2018-12-29T12:57:43.383Z,15.53
2018-12-29T13:00:10.944Z,15.83
2018-12-29T13:02:38.414Z,15.20
2018-12-29T13:05:06.647Z,13.00
2018-12-29T13:07:34.287Z,13.53
2018-12-29T13:10:07.820Z,13.80
2018-12-29T13:12:35.400Z,14.20
2018-12-29T13:15:02.974Z,13.80
2018-12-29T13:17:30.699Z,12.77
2018-12-29T13:19:57.728Z,14.77
2018-12-29T13:22:24.760Z,12.43
2018-12-29T13:24:55.007Z,15.43
2018-12-29T13:27:22.783Z,14.20
2018-12-29T13:29:49.987Z,11.20
2018-12-29T13:32:17.297Z,12.83
2018-12-29T13:34:45.050Z,11.60
2018-12-29T13:37:12.695Z,13.20
2018-12-29T13:39:39.985Z,12.60
2018-12-29T13:42:06.858Z,11.70
2018-12-29T13:44:34.147Z,12.83
2018-12-29T13:47:01.729Z,13.43
2018-12-29T13:49:28.930Z,14.23
2018-12-29T13:51:56.579Z,13.23
2018-12-29T13:54:23.813Z,12.83
2018-12-29T13:56:51.535Z,13.43
2018-12-29T13:59:19.080Z,12.70
2018-12-29T14:01:47.167Z,13.43
2018-12-29T14:04:14.883Z,14.70
2018-12-29T14:06:42.388Z,13.40
2018-12-29T14:09:09.422Z,13.80
2018-12-29T14:11:39.626Z,14.23
2018-12-29T14:14:07.964Z,14.80
2018-12-29T14:16:35.257Z,13.20
2018-12-29T14:19:02.770Z,14.87
2018-12-29T14:21:30.132Z,14.00
2018-12-29T14:23:57.658Z,14.10
2018-12-29T14:26:25.739Z,15.30
2018-12-29T14:28:53.087Z,13.53
2018-12-29T14:31:20.075Z,15.20
2018-12-29T14:33:47.623Z,16.40
2018-12-29T14:36:15.273Z,15.07
2018-12-29T14:38:43.707Z,13.40
2018-12-29T14:41:11.656Z,14.80
2018-12-29T14:43:40.132Z,14.23
2018-12-29T14:46:08.884Z,16.50
2018-12-29T14:48:38.009Z,15.57
2018-12-29T14:51:06.055Z,15.30
2018-12-29T14:53:33.663Z,17.37
2018-12-29T14:56:01.716Z,21.90
2018-12-29T14:58:30.159Z,18.90
2018-12-29T15:00:58.941Z,16.63
2018-12-29T15:03:26.736Z,14.27
2018-12-29T15:05:55.096Z,16.70
2018-12-29T15:08:23.095Z,16.63
2018-12-29T15:10:50.735Z,14.87
2018-12-29T15:13:18.500Z,15.03
2018-12-29T15:15:46.480Z,15.50
2018-12-29T15:18:14.067Z,14.47
2018-12-29T15:20:41.617Z,15.23
2018-12-29T15:23:10.275Z,16.40
2018-12-29T15:25:37.601Z,14.30
2018-12-29T15:28:05.175Z,14.00
2018-12-29T15:30:32.822Z,15.00
2018-12-29T15:33:01.031Z,13.10
2018-12-29T15:35:29.147Z,21.47
2018-12-29T15:37:57.930Z,17.80
2018-12-29T15:40:25.687Z,14.37
2018-12-29T15:42:52.890Z,14.27
2018-12-29T15:45:20.484Z,13.03
2018-12-29T15:47:47.820Z,14.13
2018-12-29T15:50:15.297Z,13.97
2018-12-29T15:52:42.890Z,13.37
2018-12-29T15:55:10.483Z,14.10
2018-12-29T15:57:40.136Z,13.80
2018-12-29T16:00:08.164Z,13.93
2018-12-29T16:02:35.492Z,14.17
2018-12-29T16:05:03.139Z,13.83
2018-12-29T16:07:30.226Z,15.00
2018-12-29T16:09:58.597Z,12.70
2018-12-29T16:12:25.651Z,13.60
2018-12-29T16:14:52.855Z,14.57
2018-12-29T16:17:20.615Z,14.20
2018-12-29T16:19:47.973Z,14.90
2018-12-29T16:22:15.143Z,13.87
2018-12-29T16:24:42.335Z,14.10
2018-12-29T16:27:10.505Z,13.73
2018-12-29T16:29:38.191Z,13.60
2018-12-29T16:32:05.387Z,14.30
2018-12-29T16:34:32.396Z,14.30
2018-12-29T16:37:00.719Z,13.50
2018-12-29T16:39:27.896Z,13.17
2018-12-29T16:41:55.911Z,12.80
2018-12-29T16:44:23.562Z,14.10
2018-12-29T16:46:52.087Z,13.00
2018-12-29T16:49:19.432Z,14.40
2018-12-29T16:51:46.876Z,13.07
2018-12-29T16:54:14.050Z,14.10
2018-12-29T16:56:42.063Z,11.80
2018-12-29T16:59:09.419Z,13.50
2018-12-29T17:01:36.536Z,12.10
2018-12-29T17:04:03.844Z,13.90
2018-12-29T17:06:31.257Z,12.53
2018-12-29T17:08:58.943Z,11.63
2018-12-29T17:11:26.643Z,12.57
2018-12-29T17:13:54.056Z,12.17
2018-12-29T17:16:21.156Z,11.57
2018-12-29T17:18:48.773Z,12.40
2018-12-29T17:21:15.863Z,11.47
2018-12-29T17:23:43.548Z,11.23
2018-12-29T17:26:10.800Z,11.50
2018-12-29T17:28:38.212Z,11.70
2018-12-29T17:31:05.988Z,12.10
2018-12-29T17:33:33.936Z,11.40
2018-12-29T17:36:01.595Z,10.63
2018-12-29T17:38:29.177Z,11.57
2018-12-29T17:40:56.848Z,11.43
2018-12-29T17:43:24.139Z,11.00
2018-12-29T17:45:51.165Z,9.47
2018-12-29T17:48:19.615Z,10.80
2018-12-29T17:50:47.163Z,11.23
2018-12-29T17:53:14.830Z,11.23
2018-12-29T17:55:43.222Z,10.63
2018-12-29T17:58:11.920Z,14.53
2018-12-29T18:00:39.563Z,9.70
2018-12-29T18:03:06.904Z,9.60
2018-12-29T18:05:35.166Z,9.93
2018-12-29T18:08:02.597Z,9.20
2018-12-29T18:10:30.167Z,8.97
2018-12-29T18:12:57.536Z,8.93
2018-12-29T18:15:25.229Z,8.80
2018-12-29T18:17:53.200Z,8.00
2018-12-29T18:20:21.280Z,8.13
2018-12-29T18:22:49.280Z,7.63
2018-12-29T18:25:16.946Z,7.70
2018-12-29T18:27:45.152Z,7.83
2018-12-29T18:30:12.761Z,9.77
2018-12-29T18:32:40.180Z,9.17
2018-12-29T18:35:07.886Z,9.90
2018-12-29T18:37:35.052Z,8.60
2018-12-29T18:40:03.475Z,8.50
2018-12-29T18:42:31.149Z,9.93
2018-12-29T18:44:58.618Z,9.50
2018-12-29T18:47:26.382Z,8.63
2018-12-29T18:49:54.990Z,10.30
2018-12-29T18:52:23.462Z,10.27
2018-12-29T18:54:51.784Z,10.10
2018-12-29T18:57:20.144Z,10.07
2018-12-29T18:59:48.309Z,11.60
2018-12-29T19:02:15.487Z,10.77
2018-12-29T19:04:43.476Z,12.00
2018-12-29T19:07:11.025Z,11.70
2018-12-29T19:09:38.247Z,11.30
2018-12-29T19:12:11.115Z,10.40
2018-12-29T19:14:35.359Z,10.47
2018-12-29T19:17:03.058Z,10.93
2018-12-29T19:19:31.501Z,11.23
2018-12-29T19:21:58.771Z,10.90
2018-12-29T19:24:26.173Z,10.53
2018-12-29T19:26:53.343Z,11.17
2018-12-29T19:29:22.408Z,10.50
2018-12-29T19:31:52.543Z,11.70
2018-12-29T19:34:20.913Z,13.17
2018-12-29T19:36:49.027Z,14.60
2018-12-29T19:39:17.171Z,11.20
2018-12-29T19:41:48.020Z,9.70
2018-12-29T19:44:13.749Z,9.53
2018-12-29T19:46:41.809Z,9.80
2018-12-29T19:49:09.764Z,11.47
2018-12-29T19:51:37.793Z,9.40
2018-12-29T19:54:05.108Z,10.70
2018-12-29T19:56:32.562Z,9.80
2018-12-29T19:59:00.075Z,11.73
2018-12-29T20:01:27.224Z,10.63
2018-12-29T20:03:55.688Z,10.90
2018-12-29T20:06:23.756Z,10.23
2018-12-29T20:08:51.351Z,10.30
2018-12-29T20:11:20.934Z,10.37
2018-12-29T20:13:48.700Z,10.37
2018-12-29T20:16:16.362Z,9.90
2018-12-29T20:18:43.733Z,10.43
2018-12-29T20:21:11.117Z,10.80
2018-12-29T20:23:38.659Z,10.10
2018-12-29T20:26:05.749Z,9.37
2018-12-29T20:28:33.397Z,10.40
2018-12-29T20:31:00.803Z,9.37
2018-12-29T20:33:29.382Z,9.90
2018-12-29T20:35:56.907Z,10.23
2018-12-29T20:38:25.455Z,10.70
2018-12-29T20:40:52.819Z,11.00
2018-12-29T20:43:20.106Z,9.77
2018-12-29T20:45:47.587Z,11.70
2018-12-29T20:48:15.283Z,10.33
2018-12-29T20:50:43.068Z,10.13
2018-12-29T20:53:10.624Z,9.17
2018-12-29T20:55:37.582Z,9.27
2018-12-29T20:58:05.134Z,10.77
2018-12-29T21:00:32.876Z,9.63
2018-12-29T21:03:00.099Z,9.77
2018-12-29T21:05:27.719Z,9.30
2018-12-29T21:07:54.827Z,10.03
2018-12-29T21:10:22.865Z,10.40
2018-12-29T21:12:50.329Z,8.77
2018-12-29T21:15:17.459Z,8.90
2018-12-29T21:17:45.108Z,9.80
2018-12-29T21:20:17.291Z,10.50
2018-12-29T21:22:42.987Z,16.17
2018-12-29T21:25:10.079Z,11.07
2018-12-29T21:27:37.188Z,8.90
2018-12-29T21:30:04.584Z,9.00
2018-12-29T21:32:32.212Z,9.70
2018-12-29T21:34:59.260Z,8.30
2018-12-29T21:37:26.261Z,9.10
2018-12-29T21:39:53.641Z,9.93
2018-12-29T21:42:21.389Z,9.37
2018-12-29T21:44:48.616Z,9.53
2018-12-29T21:47:16.527Z,8.43
2018-12-29T21:49:44.038Z,7.73
2018-12-29T21:52:12.772Z,9.27
2018-12-29T21:54:40.166Z,8.37
2018-12-29T21:57:07.463Z,7.97
2018-12-29T21:59:35.328Z,8.90
2018-12-29T22:02:03.164Z,7.60
2018-12-29T22:04:31.132Z,7.30
2018-12-29T22:06:58.061Z,8.07
2018-12-29T22:09:25.947Z,8.17
2018-12-29T22:11:53.139Z,6.63
2018-12-29T22:14:22.184Z,8.20
2018-12-29T22:16:49.960Z,7.93
2018-12-29T22:19:18.964Z,7.17
2018-12-29T22:21:46.230Z,7.17
2018-12-29T22:24:13.492Z,6.43
2018-12-29T22:26:41.404Z,7.33
2018-12-29T22:29:08.562Z,6.50
2018-12-29T22:31:36.636Z,6.43
2018-12-29T22:34:03.790Z,6.40
2018-12-29T22:36:31.448Z,6.87
2018-12-29T22:38:59.208Z,6.77
2018-12-29T22:41:26.532Z,7.00
2018-12-29T22:43:54.146Z,6.70
2018-12-29T22:46:21.484Z,11.03
2018-12-29T22:48:49.160Z,9.20
2018-12-29T22:51:16.630Z,13.23
2018-12-29T22:53:44.267Z,7.20
2018-12-29T22:56:12.134Z,7.40
2018-12-29T22:58:40.072Z,6.10
2018-12-29T23:01:07.874Z,6.80
2018-12-29T23:03:36.160Z,5.63
2018-12-29T23:06:05.299Z,6.27
2018-12-29T23:08:33.510Z,5.23
2018-12-29T23:11:01.527Z,6.33
2018-12-29T23:13:28.658Z,5.20
2018-12-29T23:15:55.772Z,5.00
2018-12-29T23:18:22.946Z,4.63
2018-12-29T23:20:51.105Z,5.17
2018-12-29T23:23:18.855Z,4.97
2018-12-29T23:25:46.428Z,4.37
2018-12-29T23:28:14.520Z,4.90
2018-12-29T23:30:42.259Z,4.93
2018-12-29T23:33:10.232Z,4.20
2018-12-29T23:35:38.856Z,3.73
2018-12-29T23:38:06.704Z,4.90
2018-12-29T23:40:34.232Z,3.93
2018-12-29T23:43:01.411Z,3.70
2018-12-29T23:45:29.799Z,4.37
2018-12-29T23:47:56.964Z,4.37
2018-12-29T23:50:24.054Z,4.30
2018-12-29T23:52:51.472Z,3.77
2018-12-29T23:55:20.085Z,3.53
2018-12-29T23:57:47.153Z,3.93
